CheckWX is a tool to help pilots better visualize weather data.  It is not intended as a substitute for an official pre-flight weather briefing.

22:26:08 UTC

CYKP METAR
Ogoki Post
Ogoki Post, Canada
Current

26 mins ago

CYKP 202200Z AUTO 20004KT 150V230 9SM CLR M04/M15 A2989 RMK ICG MISG SLP143
Observed
Feb-20 @ 22:00 UTC
Wind
  • 200° at 4 KTS
Visibility
14,484 meters
Flight Rules
VFR
Cloud Levels
  • Clear skies
Temperature
-4°C / 25°F
Dewpoint
-15°C / 5°F
Humidity
42%
Altimeter
29.89" Hg
Pressure
1014.3 hPa
Previous

1 hour ago

CYKP 202100Z AUTO 20005KT 170V230 9SM CLR M04/M15 A2992 RMK ICG MISG SLP152
Observed
Feb-20 @ 21:00 UTC
Wind
  • 200° at 5 KTS
Visibility
14,484 meters
Flight Rules
VFR
Cloud Levels
  • Clear skies
Temperature
-4°C / 25°F
Dewpoint
-15°C / 5°F
Humidity
42%
Altimeter
29.92" Hg
Pressure
1015.2 hPa
Previous

2 hours ago

CYKP 202000Z AUTO 17008KT 160V220 9SM CLR M04/M15 A2994 RMK ICG MISG SLP159
Observed
Feb-20 @ 20:00 UTC
Wind
  • 170° at 8 KTS
Visibility
14,484 meters
Flight Rules
VFR
Cloud Levels
  • Clear skies
Temperature
-4°C / 25°F
Dewpoint
-15°C / 5°F
Humidity
42%
Altimeter
29.94" Hg
Pressure
1015.9 hPa